Gainesville, FL

3:13 PM EST on January 26, 2015 (GMT -0500)
Gainesville Regional | Change Station
CLOSE
Current Station
Airport
Location: Gainesville,
Elevation: 151 ft
Nearby Weather Stations

Elev 151 ft 29.69 °N, 82.28 °W | Updated 20 minutes ago

Partly Cloudy
Partly Cloudy
60 °F
Feels Like 60 °F
N
17
Wind Variable Wind from West
Gusts 26 mph

Today
High -- | Low -- °F
--% Chance of Precip.
Yesterday
High -- | Low -- °F
Precip. -- in
7:22 AM 6:01 PM
Waxing Crescent, 46% visible
Pressure 29.83 in
Visibility 10.0 miles
Clouds Few 5000 ft
Dew Point 39 °F
Humidity 46%
Rainfall 0.15 in
Snow Depth Not available.
UV 4 out of 12
Pollen 5.10 out of 12
Air Quality Not available.
Flu Activity Not available.
METAR KGNV 261953Z 26015G23KT 10SM FEW050 16/04 A2983 RMK AO2 SLP102 T01560039

More Conditions Fewer Conditions

Pressure 29.83 in
Visibility 10.0 miles
Clouds Few 5000 ft
Dew Point 39 °F
Humidity 46%
Rainfall 0.15 in
Snow Depth Not available.
UV 4 out of 12
Pollen 5.10 out of 12
Air Quality Not available.
Flu Activity Not available.
METAR KGNV 261953Z 26015G23KT 10SM FEW050 16/04 A2983 RMK AO2 SLP102 T01560039

More Conditions Fewer Conditions

10-Day Weather Forecast

Almanac

Astronomy

Jan. 26, 2015 Rise Set
Actual Time
Civil Twilight
Nautical Twilight
Astronomical Twilight
Moon
Length of Visible Light
Length of Day
Tomorrow will be .
, % of the Moon is Illuminated

Today's Extremes

State Highs State Lows

Community

WunderPhotos

Upload Photos

1,790,347 photos uploaded!

WunderBlogs® & News

Nearby

Air Quality

  Air Quality AQ Index Pollutant
Not available.

Snow Depth

Station Depth Elevation

Earthquake Activity

City Distance Mag. Time & Date
Minimum magnitude displayed is 2.5.

Coastal Water Temperatures

Place Temperature

Nearby Weather Stations